Date,TemperatureHighF,TemperatureAvgF,TemperatureLowF,DewpointHighF,DewpointAvgF,DewpointLowF,HumidityHigh,HumidityAvg,HumidityLow,PressureMaxIn,PressureMinIn,WindSpeedMaxMPH,WindSpeedAvgMPH,GustSpeedMaxMPH,PrecipitationSumIn
2013-1-1,73.0,65.4,53.0,68.0,63.1,52.0,99,92,78,30.11,29.95,5,1,13,0.09
2013-1-2,59.0,52.0,46.0,58.0,48.7,43.0,96,89,82,30.17,29.98,5,2,13,0.06
2013-1-3,46.0,42.6,37.0,43.0,39.7,32.0,96,89,80,30.34,30.16,6,2,13,0.29
2013-1-4,56.0,42.2,34.0,39.0,33.4,30.0,95,74,41,30.42,30.31,4,1,12,0.01
2013-1-5,54.0,47.4,39.0,43.0,36.4,31.0,93,66,49,30.37,30.24,6,1,10,0.00
2013-1-6,52.0,49.0,46.0,47.0,42.7,39.0,93,79,66,30.27,30.18,4,1,9,0.01
2013-1-7,62.0,48.8,38.0,43.0,39.7,36.0,95,74,40,30.32,30.21,7,1,12,0.01
2013-1-8,64.0,56.6,47.0,59.0,50.9,40.0,89,81,70,30.27,30.16,6,2,11,0.00
2013-1-9,68.0,64.5,60.0,66.0,62.6,57.0,98,94,85,30.26,30.17,6,2,14,0.02
2013-1-10,69.0,66.2,63.0,68.0,65.2,62.0,99,97,93,30.26,30.06,7,2,17,0.40
2013-1-11,76.0,68.4,61.0,70.0,66.3,60.0,99,93,79,30.16,30.06,7,1,16,0.38
2013-1-12,74.0,69.5,67.0,69.0,67.3,66.0,98,93,82,30.13,30.00,6,2,15,0.00
2013-1-13,74.0,70.9,69.0,71.0,69.1,68.0,97,94,88,30.03,29.96,6,2,20,0.00
2013-1-14,76.0,68.8,54.0,71.0,66.5,52.0,98,93,83,30.11,30.01,4,1,11,0.00
2013-1-15,75.0,65.5,53.0,71.0,63.7,52.0,99,95,85,30.07,29.93,3,1,12,0.26
2013-1-16,70.0,56.1,45.0,69.0,55.1,43.0,98,98,96,30.03,29.92,5,1,11,1.17
2013-1-17,49.0,42.1,37.0,43.0,37.9,33.0,98,85,68,30.32,30.02,12,4,24,0.04
2013-1-18,58.0,43.6,34.0,40.0,36.1,32.0,97,78,44,30.50,30.31,5,2,12,0.01
2013-1-19,62.0,46.7,33.0,50.0,39.9,32.0,97,80,53,30.40,30.24,5,0,9,0.00
2013-1-20,67.0,49.0,34.0,52.0,42.4,34.0,98,82,45,30.27,30.12,4,0,9,0.00
2013-1-21,65.0,50.6,37.0,48.0,41.8,36.0,99,75,43,30.21,30.11,5,1,10,0.00
2013-1-22,60.0,46.8,36.0,42.0,35.6,29.0,95,68,38,30.37,30.19,4,1,12,0.00
2013-1-23,66.0,48.1,32.0,52.0,42.4,31.0,98,83,56,30.42,30.30,3,0,7,0.00
2013-1-24,71.0,54.1,37.0,58.0,49.4,36.0,99,86,57,30.35,30.23,5,1,10,0.00
2013-1-25,70.0,55.7,42.0,61.0,51.4,41.0,99,87,58,30.30,30.17,4,0,15,0.00
2013-1-26,73.0,59.4,47.0,63.0,55.4,46.0,99,88,64,30.26,30.18,5,1,11,0.01
2013-1-27,70.0,58.1,49.0,61.0,54.5,48.0,99,89,71,30.32,30.25,3,1,10,0.01
2013-1-28,72.0,62.1,47.0,66.0,59.9,46.0,99,93,80,30.30,30.17,5,1,11,0.01
2013-1-29,75.0,70.5,66.0,71.0,68.3,65.0,97,93,83,30.17,29.90,7,3,18,0.01
2013-1-30,75.0,63.8,46.0,72.0,61.0,36.0,96,91,69,30.10,29.67,10,4,23,0.36
2013-1-31,58.0,48.0,36.0,38.0,32.5,26.0,97,60,31,30.32,30.10,8,2,18,0.01
2013-2-1,60.0,46.3,34.0,42.0,35.7,28.0,98,70,38,30.40,30.30,7,1,14,0.00
2013-2-2,63.0,45.6,28.0,47.0,37.1,25.0,96,75,46,30.38,30.17,3,0,9,0.00
2013-2-3,67.0,53.5,42.0,49.0,41.0,31.0,98,69,27,30.26,30.11,6,1,13,0.00
2013-2-4,65.0,53.0,37.0,54.0,45.7,36.0,97,78,54,30.12,29.99,3,0,6,0.01
2013-2-5,66.0,58.5,52.0,61.0,56.5,51.0,98,94,84,30.03,29.96,3,0,9,0.35
2013-2-6,70.0,58.9,52.0,61.0,56.1,51.0,99,92,69,30.16,30.03,3,1,9,0.01
2013-2-7,75.0,63.3,53.0,63.0,59.1,51.0,98,88,59,30.04,29.81,9,2,19,2.62
2013-2-8,71.0,58.4,48.0,61.0,54.0,47.0,99,87,63,30.15,29.94,5,1,13,0.15
2013-2-9,64.0,53.7,45.0,52.0,47.7,42.0,97,81,56,30.26,30.14,4,1,10,0.00
2013-2-10,70.0,63.2,45.0,69.0,61.3,44.0,98,94,89,30.15,29.99,8,3,21,0.03
2013-2-11,74.0,64.9,59.0,72.0,63.2,56.0,99,94,85,30.09,30.01,7,2,20,1.05
2013-2-12,71.0,63.4,57.0,70.0,62.0,56.0,99,95,90,30.05,29.77,5,2,20,0.20
2013-2-13,70.0,55.6,46.0,68.0,53.1,44.0,97,91,73,30.06,29.78,7,2,14,0.27
2013-2-14,58.0,45.3,36.0,44.0,40.7,35.0,97,85,58,30.16,30.03,3,1,11,0.09
2013-2-15,65.0,47.4,32.0,47.0,39.8,32.0,98,79,37,30.17,30.03,3,0,9,0.01
2013-2-16,53.0,46.1,30.0,44.0,31.2,19.0,90,59,28,30.28,30.06,11,3,22,0.01
2013-2-17,55.0,38.8,23.0,33.0,26.3,17.0,96,67,27,30.40,30.27,4,1,8,0.00
2013-2-18,61.0,57.2,31.0,54.0,47.0,30.0,95,70,57,30.31,30.05,7,4,21,0.00
2013-2-19,67.0,60.2,42.0,61.0,49.2,32.0,96,70,32,30.20,29.99,7,3,18,0.40
2013-2-20,58.0,45.4,36.0,38.0,30.4,24.0,94,60,30,30.27,30.09,5,1,19,0.11
2013-2-21,66.0,54.8,36.0,65.0,47.3,33.0,95,77,51,30.10,29.91,6,2,16,0.00
2013-2-22,69.0,67.1,66.0,69.0,66.2,65.0,99,97,92,29.97,29.86,4,1,10,1.27
2013-2-23,69.0,60.3,57.0,69.0,59.7,56.0,99,98,95,29.95,29.78,6,1,10,0.87
2013-2-24,70.0,60.3,52.0,59.0,54.8,51.0,98,83,58,29.99,29.84,7,1,14,0.61
2013-2-25,69.0,62.0,58.0,65.0,60.2,57.0,98,94,79,29.90,29.54,9,4,20,3.85
2013-2-26,66.0,56.4,51.0,65.0,48.8,43.0,98,76,59,29.92,29.53,9,3,18,1.65
2013-2-27,64.0,51.6,42.0,47.0,43.7,40.0,98,77,46,30.03,29.92,5,1,12,0.00
2013-2-28,59.0,49.2,40.0,43.0,37.8,34.0,98,68,39,30.08,29.97,6,2,14,0.00
2013-3-1,55.0,46.1,39.0,40.0,35.7,32.0,90,68,43,30.14,30.00,6,1,12,0.00
2013-3-2,48.0,39.0,27.0,33.0,28.3,26.0,97,68,45,30.18,30.08,9,3,20,0.00
2013-3-3,52.0,39.7,31.0,31.0,26.7,22.0,93,62,33,30.22,30.11,6,2,13,0.00
2013-3-4,63.0,49.6,29.0,56.0,42.5,28.0,97,79,53,30.21,30.01,4,1,15,0.00
2013-3-5,73.0,60.9,46.0,63.0,54.6,38.0,98,81,57,30.14,29.93,11,3,23,0.00
2013-3-6,58.0,47.2,38.0,38.0,31.8,27.0,95,58,31,30.27,30.14,9,2,23,0.00
2013-3-7,64.0,46.3,31.0,46.0,35.8,29.0,95,70,32,30.35,30.21,4,1,10,0.00
2013-3-8,72.0,50.6,31.0,48.0,38.6,30.0,98,71,22,30.31,30.19,4,1,8,0.00
2013-3-9,68.0,55.7,42.0,57.0,50.0,41.0,98,82,53,30.22,30.08,5,2,17,0.00
2013-3-10,70.0,63.7,57.0,63.0,59.0,53.0,92,85,78,30.10,29.98,8,4,21,0.00
2013-3-11,72.0,58.5,45.0,65.0,56.1,42.0,98,92,79,29.98,29.84,12,2,28,1.36
2013-3-12,64.0,49.6,40.0,43.0,39.1,36.0,95,71,39,30.18,29.96,7,2,19,0.01
2013-3-13,65.0,50.0,34.0,42.0,34.1,23.0,97,62,21,30.34,30.18,9,2,18,0.00
2013-3-14,64.0,47.8,34.0,37.0,30.2,23.0,92,56,24,30.43,30.28,6,2,13,0.00
2013-3-15,70.0,52.3,33.0,51.0,42.9,32.0,97,74,41,30.32,30.15,3,1,12,0.00
2013-3-16,75.0,57.9,40.0,59.0,51.2,39.0,98,81,55,30.16,30.00,4,1,13,0.00
2013-3-17,73.0,60.3,47.0,64.0,56.7,46.0,98,89,66,30.03,29.92,4,1,9,0.00
2013-3-18,78.0,69.4,63.0,71.0,66.3,62.0,97,90,78,29.94,29.80,5,1,14,0.00
2013-3-19,78.0,65.3,54.0,68.0,57.0,52.0,98,78,40,30.03,29.88,5,2,12,0.00
2013-3-20,65.0,56.5,38.0,52.0,37.6,32.0,94,51,32,30.09,29.96,6,2,15,0.00
2013-3-21,67.0,51.5,37.0,45.0,34.0,25.0,93,57,22,30.08,29.90,7,1,13,0.00
2013-3-22,65.0,57.1,47.0,56.0,47.2,36.0,88,71,46,29.97,29.88,8,3,19,0.00
2013-3-23,71.0,65.2,61.0,67.0,60.7,48.0,98,86,59,29.89,29.61,5,2,12,0.71
2013-3-24,80.0,70.0,51.0,70.0,58.9,35.0,98,71,35,29.91,29.56,10,4,21,0.06
2013-3-25,60.0,48.3,38.0,36.0,28.4,22.0,73,49,25,30.21,29.91,10,4,21,0.00
2013-3-26,55.0,43.3,30.0,30.0,27.1,24.0,89,55,33,30.36,30.21,8,2,19,0.00
2013-3-27,62.0,44.0,27.0,40.0,31.0,25.0,95,65,26,30.43,30.28,6,1,12,0.00
2013-3-28,70.0,49.2,31.0,42.0,35.9,30.0,96,67,25,30.37,30.25,4,1,11,0.00
2013-3-29,72.0,54.1,35.0,54.0,42.6,34.0,96,71,28,30.34,30.22,4,1,11,0.00
2013-3-30,75.0,60.0,44.0,62.0,51.4,-99.9,98,79,51,30.23,30.06,5,1,14,0.00
2013-3-31,79.0,65.6,52.0,66.0,59.7,51.0,97,83,58,30.08,29.90,4,1,14,0.02
2013-4-1,75.0,64.2,53.0,63.0,58.5,51.0,98,84,55,30.06,29.90,7,2,14,0.02
2013-4-2,78.0,61.4,43.0,56.0,48.9,42.0,98,69,32,30.14,30.02,5,1,15,0.01
2013-4-3,62.0,58.3,53.0,59.0,56.2,52.0,97,93,86,30.08,29.80,13,2,20,1.33
2013-4-4,74.0,63.3,58.0,64.0,59.5,55.0,98,88,68,29.96,29.83,6,1,14,0.03
2013-4-5,65.0,56.2,47.0,55.0,50.0,45.0,95,81,57,30.10,29.91,7,3,16,0.00
2013-4-6,71.0,56.1,39.0,52.0,46.7,38.0,98,75,42,30.18,30.09,5,1,15,0.00
2013-4-7,74.0,62.5,44.0,66.0,57.9,43.0,98,86,70,30.15,30.03,3,1,11,0.00
2013-4-8,78.0,70.0,59.0,67.0,64.2,58.0,99,83,53,30.10,29.99,6,2,15,0.00
2013-4-9,79.0,71.7,64.0,70.0,66.3,61.0,96,84,65,30.11,29.98,5,2,16,0.00
2013-4-10,81.0,71.0,62.0,71.0,66.3,60.0,97,86,68,30.06,29.90,5,2,18,0.00
2013-4-11,79.0,72.3,63.0,75.0,70.2,61.0,98,94,86,29.90,29.60,8,3,21,1.51
2013-4-12,73.0,61.9,52.0,62.0,52.5,47.0,97,75,40,29.98,29.75,7,2,14,1.49
2013-4-13,79.0,62.5,44.0,57.0,50.4,43.0,98,70,34,30.05,29.90,5,1,10,0.00
2013-4-14,67.0,62.1,58.0,66.0,60.2,56.0,98,93,82,29.96,29.72,10,2,18,1.04
2013-4-15,79.0,70.0,65.0,71.0,67.0,64.0,98,91,76,30.04,29.84,3,0,8,0.01
2013-4-16,83.0,73.2,65.0,70.0,66.8,64.0,98,82,60,30.12,30.03,5,1,13,0.00
2013-4-17,80.0,71.9,64.0,71.0,66.5,63.0,98,85,59,30.14,30.01,5,1,15,0.00
2013-4-18,78.0,72.2,65.0,72.0,69.4,64.0,97,91,80,30.01,29.88,5,2,16,0.26
2013-4-19,74.0,59.9,48.0,73.0,57.8,47.0,97,93,80,30.16,29.82,8,2,19,0.50
2013-4-20,68.0,53.7,42.0,48.0,43.1,38.0,98,72,39,30.25,30.12,7,2,16,0.08
2013-4-21,76.0,57.6,40.0,55.0,47.7,39.0,98,74,38,30.22,30.10,6,1,14,0.01
2013-4-22,73.0,64.4,51.0,63.0,56.9,48.0,95,77,69,30.15,30.06,5,1,11,0.00
2013-4-23,73.0,64.7,53.0,64.0,60.1,52.0,98,86,69,30.14,30.05,5,1,12,0.00
2013-4-24,77.0,68.3,56.0,68.0,65.0,55.0,98,90,73,30.14,30.04,6,1,10,0.17
2013-4-25,78.0,65.8,57.0,64.0,58.3,49.0,99,79,55,30.27,30.12,6,1,12,0.05
2013-4-26,82.0,66.7,52.0,57.0,49.2,42.0,93,56,34,30.30,30.22,7,1,13,0.00
2013-4-27,79.0,67.3,52.0,70.0,63.0,51.0,98,87,68,30.22,30.06,5,1,12,0.00
2013-4-28,81.0,72.3,65.0,71.0,66.6,63.0,99,84,62,30.09,29.95,3,0,9,0.00
2013-4-29,81.0,70.0,63.0,72.0,65.8,62.0,97,87,62,29.99,29.90,3,0,10,0.40
2013-4-30,79.0,70.3,60.0,70.0,65.4,59.0,99,86,65,29.97,29.90,4,1,11,0.28
2013-5-1,72.0,69.7,67.0,69.0,67.1,65.0,96,91,84,29.96,29.87,7,2,17,0.09
2013-5-2,75.0,68.2,62.0,68.0,65.0,61.0,98,90,77,30.00,29.89,8,2,15,2.65
2013-5-3,70.0,65.9,52.0,66.0,63.1,50.0,97,90,80,29.93,29.82,8,2,15,1.25
2013-5-4,68.0,55.4,46.0,50.0,43.4,39.0,96,69,36,29.95,29.87,10,4,21,0.35
2013-5-5,72.0,57.1,43.0,60.0,46.4,41.0,98,71,40,29.99,29.83,8,3,21,0.03
2013-5-6,70.0,57.8,41.0,57.0,48.9,40.0,97,74,49,30.02,29.92,8,2,15,0.00
2013-5-7,75.0,63.0,51.0,61.0,56.2,50.0,98,80,58,30.04,29.95,7,1,14,0.00
2013-5-8,81.0,67.2,53.0,67.0,60.8,52.0,98,82,54,30.11,30.01,3,0,10,0.00
2013-5-9,82.0,69.0,54.0,68.0,61.9,53.0,98,81,47,30.15,30.06,3,0,11,0.00
2013-5-10,79.0,66.8,59.0,69.0,61.4,-99.9,98,88,61,30.15,29.91,4,0,13,0.01
2013-5-11,76.0,66.6,58.0,70.0,63.6,-99.9,98,93,78,30.06,29.95,3,0,9,0.25
2013-5-12,79.0,70.1,62.0,65.0,59.3,51.0,99,72,43,30.11,29.98,5,1,12,0.01
2013-5-13,78.0,65.3,51.0,53.0,46.1,40.0,91,54,28,30.27,30.10,6,2,14,0.00
2013-5-14,81.0,66.2,48.0,62.0,54.1,47.0,97,70,38,30.28,30.16,2,0,11,0.00
2013-5-15,84.0,67.2,52.0,66.0,56.6,51.0,97,73,37,30.22,30.05,3,0,9,0.00
2013-5-16,80.0,65.8,61.0,70.0,45.7,-99.9,96,86,68,30.07,29.99,4,1,15,0.00
2013-5-17,81.0,71.9,60.0,72.0,63.1,-99.9,99,87,70,30.08,29.99,4,1,14,0.00
2013-5-18,86.0,79.2,69.0,73.0,70.7,67.0,96,77,59,30.09,30.02,2,1,10,0.00
2013-5-19,87.0,74.6,63.0,74.0,69.5,62.0,98,85,65,30.06,30.00,3,0,10,0.00
2013-5-20,87.0,76.8,66.0,75.0,70.5,65.0,99,83,60,30.05,29.97,3,0,10,0.00
2013-5-21,86.0,76.1,65.0,74.0,69.4,64.0,98,82,61,30.01,29.90,3,0,11,0.00
2013-5-22,85.0,74.6,64.0,74.0,69.4,63.0,99,85,63,30.01,29.88,4,0,11,0.13
2013-5-23,91.0,77.5,64.0,73.0,68.2,62.0,98,76,40,30.04,29.94,4,1,9,0.13
2013-5-24,88.0,77.8,67.0,70.0,65.0,56.0,99,68,38,30.15,30.01,6,2,14,0.00
2013-5-25,88.0,71.9,58.0,62.0,55.3,49.0,93,59,30,30.23,30.14,4,1,11,0.00
2013-5-26,86.0,72.2,58.0,72.0,63.8,56.0,96,77,46,30.22,30.13,4,1,10,0.00
2013-5-27,86.0,74.6,63.0,72.0,64.6,59.0,98,75,43,30.18,30.07,3,1,10,0.00
2013-5-28,84.0,73.0,58.0,73.0,67.3,57.0,98,84,68,30.10,30.04,4,1,16,0.00
2013-5-29,84.0,76.5,67.0,74.0,71.1,66.0,98,84,68,30.08,30.01,7,2,16,0.00
2013-5-30,85.0,78.9,74.0,73.0,71.6,69.0,92,79,65,30.08,30.01,6,3,20,0.00
2013-5-31,85.0,78.8,73.0,74.0,72.6,71.0,94,82,65,30.08,29.99,5,2,17,0.00
2013-6-1,84.0,77.6,72.0,76.0,72.4,-99.9,96,88,76,30.02,29.95,4,1,14,0.00
2013-6-2,90.0,78.7,69.0,77.0,73.1,68.0,99,85,63,29.98,29.86,3,1,11,0.00
2013-6-3,88.0,78.5,71.0,77.0,73.4,69.0,96,85,66,29.93,29.84,3,0,9,0.08
2013-6-4,89.0,79.3,68.0,78.0,73.6,67.0,98,84,65,29.95,29.89,3,1,10,0.01
2013-6-5,88.0,79.3,72.0,78.0,73.7,66.0,97,84,65,29.95,29.85,7,1,14,0.08
2013-6-6,88.0,76.5,66.0,74.0,69.0,64.0,95,79,58,29.93,29.70,6,2,15,0.01
2013-6-7,84.0,75.1,68.0,73.0,69.9,67.0,98,85,65,29.89,29.75,4,1,14,0.14
2013-6-8,89.0,79.1,67.0,77.0,72.4,66.0,98,82,63,30.03,29.88,2,1,12,0.28
2013-6-9,74.0,72.1,70.0,73.0,71.0,69.0,98,97,94,30.08,29.93,3,0,12,5.01
2013-6-10,82.0,75.0,70.0,76.0,72.9,69.0,99,94,77,30.09,29.98,4,0,12,2.40
2013-6-11,93.0,80.2,71.0,80.0,75.2,70.0,99,86,57,30.10,30.01,2,0,8,0.01
2013-6-12,93.0,81.4,70.0,80.0,75.1,69.0,99,83,52,30.09,29.99,2,0,11,0.00
2013-6-13,93.0,82.2,72.0,78.0,74.5,71.0,98,80,54,30.03,29.86,4,1,12,0.00
2013-6-14,93.0,83.4,76.0,79.0,74.5,70.0,97,76,49,29.94,29.84,6,1,12,0.00
2013-6-15,90.0,81.1,71.0,80.0,73.5,66.0,93,78,65,30.02,29.92,3,1,11,0.00
2013-6-16,89.0,81.2,72.0,79.0,76.5,71.0,98,86,72,30.05,29.99,2,0,8,0.00
2013-6-17,89.0,81.1,75.0,80.0,76.5,73.0,98,87,70,30.02,29.95,3,0,10,0.15
2013-6-18,89.0,80.6,72.0,78.0,74.5,70.0,96,83,59,30.01,29.90,5,1,16,0.80
2013-6-19,88.0,78.4,70.0,78.0,73.8,69.0,99,87,70,30.03,29.93,5,1,10,0.87
2013-6-20,92.0,79.1,70.0,75.0,72.4,69.0,98,82,51,30.09,30.00,2,0,6,0.01
2013-6-22,89.0,84.9,74.0,77.0,74.6,72.0,94,72,62,30.11,30.00,2,1,7,0.01
2013-6-23,87.0,78.0,72.0,77.0,74.1,71.0,98,89,73,30.10,30.02,4,0,10,0.05
2013-6-24,92.0,80.8,73.0,79.0,75.4,72.0,99,85,57,30.16,30.08,2,0,7,0.12
2013-6-25,89.0,79.6,71.0,78.0,74.7,70.0,99,86,66,30.13,30.03,2,0,7,0.01
2013-6-26,91.0,80.5,70.0,79.0,74.7,69.0,98,84,61,30.08,29.97,2,0,8,0.00
2013-6-27,93.0,82.7,73.0,80.0,75.8,72.0,98,81,56,30.01,29.89,5,1,10,0.00
2013-6-28,93.0,84.4,77.0,80.0,77.7,75.0,98,82,60,29.92,29.76,4,1,11,0.00
2013-6-29,91.0,79.4,71.0,82.0,75.0,70.0,99,87,71,29.80,29.67,2,0,25,0.03
2013-6-30,91.0,78.2,70.0,77.0,72.7,69.0,99,85,55,29.77,29.69,3,0,10,0.14
2013-7-1,90.0,79.4,72.0,75.0,71.4,68.0,98,79,50,29.89,29.74,4,1,11,0.01
2013-7-2,90.0,78.8,67.0,75.0,71.1,66.0,97,79,56,30.00,29.88,3,0,9,0.00
2013-7-3,84.0,75.3,70.0,76.0,72.5,68.0,98,91,75,30.02,29.95,4,1,12,0.17
2013-7-4,82.0,75.9,72.0,78.0,73.2,71.0,99,92,78,30.02,29.91,4,1,16,5.11
2013-7-5,77.0,72.9,69.0,74.0,71.5,68.0,98,96,89,30.10,29.99,4,0,10,1.46
2013-7-6,78.0,73.2,71.0,75.0,72.2,70.0,99,97,88,30.07,29.99,2,0,6,2.08
2013-7-7,81.0,76.1,72.0,78.0,75.0,72.0,99,96,87,30.13,30.02,3,0,8,0.73
2013-7-8,87.0,77.1,73.0,78.0,75.1,73.0,99,94,74,30.17,30.09,1,0,5,0.02
2013-7-9,90.0,79.3,71.0,80.0,74.7,71.0,99,87,66,30.19,30.08,3,0,8,0.01
2013-7-10,90.0,75.4,70.0,79.0,71.0,-99.9,99,90,65,30.11,29.97,4,0,13,2.14
2013-7-11,79.0,74.3,71.0,78.0,73.2,71.0,99,96,88,30.02,29.88,3,0,9,1.72
2013-7-12,91.0,78.7,72.0,79.0,74.8,72.0,99,89,57,29.92,29.84,2,0,12,0.24
2013-7-13,90.0,73.8,68.0,80.0,70.9,67.0,99,91,72,29.99,29.86,8,0,13,0.85
2013-7-14,87.0,76.9,68.0,79.0,72.7,67.0,99,88,67,30.03,29.91,4,1,11,0.08
2013-7-15,85.0,77.1,72.0,78.0,74.5,71.0,99,93,72,30.13,30.02,6,1,12,0.23
2013-7-16,87.0,79.2,73.0,77.0,73.9,71.0,96,85,66,30.18,30.09,6,2,20,0.01
2013-7-17,92.0,81.0,72.0,78.0,74.2,71.0,97,81,57,30.21,30.08,6,1,12,0.01
2013-7-18,91.0,79.4,71.0,78.0,73.7,70.0,98,84,61,30.13,29.99,3,0,9,0.04
2013-7-19,85.0,76.8,70.0,78.0,73.6,69.0,99,91,74,30.08,29.96,5,1,10,0.50
2013-7-20,84.0,77.1,72.0,80.0,75.4,71.0,99,95,84,30.01,29.92,3,0,11,2.21
2013-7-21,86.0,77.6,73.0,79.0,74.6,72.0,98,91,73,30.06,29.98,5,0,17,0.04
2013-7-22,87.0,76.3,71.0,80.0,74.3,70.0,99,94,77,30.08,29.99,13,1,29,1.66
2013-7-23,88.0,78.4,71.0,79.0,75.2,71.0,100,91,72,30.04,29.93,7,1,20,1.47
2013-7-24,87.0,79.6,71.0,80.0,76.3,70.0,99,90,74,29.96,29.87,9,1,23,0.65
2013-7-25,91.0,79.8,71.0,77.0,74.3,70.0,99,85,61,30.00,29.85,5,1,11,0.81
2013-7-26,91.0,80.9,72.0,80.0,75.0,71.0,98,84,61,30.04,29.96,4,0,9,0.01
2013-7-27,84.0,76.9,72.0,79.0,73.9,70.0,99,91,77,29.97,29.91,6,0,13,0.10
2013-7-28,90.0,79.4,72.0,80.0,75.3,71.0,99,89,69,29.99,29.88,3,0,18,0.87
2013-7-29,90.0,81.3,74.0,80.0,77.1,73.0,99,88,70,30.11,29.97,2,0,8,0.27
2013-7-30,92.0,82.5,73.0,81.0,76.5,73.0,99,84,63,30.15,30.06,3,0,7,0.00
2013-7-31,88.0,80.3,74.0,80.0,76.3,73.0,98,89,71,30.09,29.98,3,0,7,0.02
2013-8-1,86.0,76.8,73.0,80.0,75.1,72.0,99,95,74,30.02,29.91,6,0,13,1.14
2013-8-2,92.0,80.4,70.0,80.0,75.5,70.0,99,86,66,30.02,29.91,3,0,6,0.01
2013-8-3,93.0,82.6,73.0,82.0,77.2,72.0,99,85,56,30.05,29.98,3,0,7,0.00
2013-8-4,96.0,81.9,73.0,79.0,76.0,72.0,99,85,56,30.06,29.96,4,1,9,0.26
2013-8-5,94.0,81.1,72.0,81.0,75.4,71.0,99,85,54,30.03,29.93,3,0,8,0.26
2013-8-6,97.0,80.7,73.0,81.0,75.7,72.0,98,86,57,30.02,29.91,3,0,9,0.05
2013-8-7,94.0,82.3,73.0,80.0,75.8,72.0,98,82,59,29.99,29.89,2,0,6,0.05
2013-8-8,93.0,82.8,76.0,80.0,77.2,75.0,99,85,57,29.97,29.91,4,1,8,0.00
2013-8-9,91.0,83.0,77.0,80.0,77.3,75.0,98,84,66,30.05,29.94,4,1,12,0.01
2013-8-10,88.0,80.0,73.0,79.0,75.9,72.0,99,88,70,30.09,30.01,4,1,10,0.17
2013-8-11,92.0,81.7,74.0,80.0,76.5,73.0,98,86,64,30.13,30.06,3,0,8,0.01
2013-8-12,91.0,80.3,74.0,80.0,76.5,73.0,99,90,66,30.11,30.03,5,0,11,1.04
2013-8-13,89.0,77.2,74.0,81.0,73.5,-99.9,99,92,72,30.06,29.93,4,0,10,0.13
2013-8-14,87.0,77.4,73.0,77.0,71.9,-99.9,98,86,68,29.96,29.88,7,1,12,0.01
2013-8-15,85.0,71.5,72.0,78.0,60.4,-99.9,99,87,75,29.97,29.90,6,0,12,0.30
2013-8-16,79.0,73.9,73.0,76.0,70.0,-99.9,99,94,88,29.99,29.92,2,0,8,0.03
2013-8-17,74.0,71.6,70.0,74.0,69.6,-99.9,99,97,96,30.02,29.92,4,0,9,2.22
2013-8-18,78.0,73.6,70.0,76.0,72.6,69.0,99,98,94,30.07,29.96,9,2,18,2.60
2013-8-19,91.0,76.6,73.0,80.0,64.6,-99.9,99,87,64,30.05,29.97,2,0,7,0.01
2013-8-20,85.0,75.6,72.0,79.0,72.3,-99.9,99,93,75,30.09,29.98,8,0,15,0.18
2013-8-21,91.0,76.9,72.0,79.0,73.1,70.0,99,89,64,30.13,30.05,4,0,8,0.05
2013-8-22,89.0,78.6,70.0,79.0,73.9,69.0,97,87,67,30.10,29.97,4,1,10,0.03
2013-8-23,82.0,75.7,72.0,77.0,73.4,71.0,98,93,83,30.04,29.94,4,0,9,0.09
2013-8-24,81.0,74.3,72.0,76.0,71.3,-99.9,99,93,83,30.13,29.99,4,0,10,0.17
2013-8-25,83.0,75.6,72.0,78.0,73.5,71.0,99,94,78,30.20,30.09,5,1,11,1.00
2013-8-26,88.0,78.0,70.0,73.0,69.3,65.0,98,76,52,30.20,30.09,4,1,11,0.21
2013-8-27,86.0,73.7,65.0,71.0,66.3,63.0,96,79,52,30.12,30.04,4,0,10,0.00
2013-8-28,91.0,83.7,72.0,75.0,72.6,70.0,96,71,53,30.06,29.99,3,0,9,0.00
2013-8-29,92.0,78.9,68.0,77.0,71.6,67.0,98,81,52,30.06,29.96,2,0,8,0.00
2013-8-30,91.0,78.8,69.0,77.0,72.7,68.0,98,83,59,30.02,29.89,3,0,9,0.00
2013-8-31,89.0,77.8,73.0,79.0,72.8,-99.9,97,87,71,29.96,29.86,4,0,9,0.13
2013-9-1,91.0,77.9,71.0,79.0,74.1,70.0,99,89,66,29.93,29.86,3,0,11,0.13
2013-9-2,90.0,78.1,71.0,80.0,75.1,70.0,99,91,63,29.98,29.88,7,0,11,1.66
2013-9-3,91.0,76.4,70.0,80.0,73.9,70.0,100,93,68,29.99,29.88,9,0,17,0.36
2013-9-4,91.0,79.5,69.0,80.0,74.9,69.0,99,87,66,30.07,29.96,4,0,10,0.03
2013-9-5,92.0,79.7,70.0,80.0,74.4,69.0,99,86,61,30.12,30.02,3,0,7,0.00
2013-9-6,92.0,79.7,71.0,76.0,72.6,70.0,99,81,53,30.09,29.98,1,0,5,0.00
2013-9-7,93.0,76.8,67.0,78.0,70.4,-99.9,98,85,53,30.05,29.97,2,0,8,0.16
2013-9-8,92.0,79.3,69.0,77.0,72.6,69.0,99,82,56,30.00,29.93,2,0,5,0.01
2013-9-9,92.0,78.8,68.0,76.0,71.8,67.0,98,82,55,30.04,29.96,2,0,9,0.01
2013-9-10,88.0,79.1,72.0,78.0,73.1,70.0,96,83,61,30.12,30.02,5,1,11,0.15
2013-9-11,90.0,78.8,70.0,76.0,71.8,68.0,97,81,55,30.12,30.03,6,1,12,0.15
2013-9-12,93.0,79.3,70.0,76.0,72.0,68.0,97,80,50,30.04,29.91,5,0,9,0.00
2013-9-13,92.0,78.4,68.0,76.0,71.7,67.0,98,82,48,29.93,29.80,3,0,8,0.00
2013-9-14,83.0,76.4,72.0,74.0,68.7,-99.9,94,79,62,29.99,29.84,3,0,7,0.00
2013-9-15,92.0,76.8,66.0,77.0,70.3,64.0,96,82,56,30.06,29.97,2,0,5,0.00
2013-9-16,90.0,78.2,70.0,79.0,73.6,69.0,99,87,63,30.08,29.99,5,0,17,0.26
2013-9-17,92.0,78.4,70.0,79.0,73.9,69.0,98,87,62,30.07,29.97,4,0,7,0.27
2013-9-18,77.0,74.9,74.0,74.0,72.1,71.0,96,91,84,30.06,30.02,5,2,11,0.04
2013-9-19,86.0,77.3,71.0,75.0,71.2,69.0,96,83,60,30.08,29.99,5,1,11,0.04
2013-9-20,89.0,78.6,70.0,78.0,73.7,69.0,98,86,62,30.02,29.85,4,1,11,0.00
2013-9-21,81.0,75.2,73.0,78.0,72.8,-99.9,99,95,89,29.86,29.72,4,0,18,1.34
2013-9-22,79.0,72.3,68.0,74.0,70.4,67.0,99,94,86,29.80,29.73,3,1,8,0.61
2013-9-23,90.0,77.5,70.0,78.0,73.6,69.0,98,89,64,29.89,29.78,3,0,7,0.59
2013-9-24,83.0,75.7,71.0,78.0,74.2,70.0,99,96,84,29.89,29.77,6,1,11,2.30
2013-9-25,87.0,76.5,68.0,77.0,72.9,66.0,99,90,68,29.81,29.74,5,1,10,1.61
2013-9-26,87.0,74.8,64.0,76.0,69.7,64.0,99,85,59,29.95,29.80,4,0,7,0.01
2013-9-27,84.0,73.2,65.0,69.0,66.2,64.0,97,80,56,30.04,29.94,6,1,11,0.00
2013-9-28,84.0,71.0,60.0,68.0,62.2,-99.9,97,77,54,30.09,30.00,5,1,10,0.00
2013-9-29,83.0,72.2,60.0,71.0,65.2,58.0,95,80,57,30.06,29.95,3,0,7,0.00
2013-9-30,84.0,73.5,68.0,73.0,68.7,65.0,97,85,62,30.00,29.92,2,0,6,0.01
2013-10-1,76.0,72.9,71.0,73.0,71.2,70.0,97,94,89,30.04,30.00,0,0,1,0.00
2013-10-2,80.0,74.6,71.0,75.0,72.0,70.0,97,92,82,30.07,30.00,5,1,10,0.17
2013-10-3,85.0,76.6,68.0,77.0,73.0,67.0,98,89,74,30.06,29.98,5,1,13,0.15
2013-10-4,87.0,78.3,73.0,76.0,73.8,71.0,98,88,63,30.06,29.99,5,1,12,0.02
2013-10-5,87.0,78.6,70.0,77.0,74.0,69.0,99,87,68,30.04,29.93,4,1,14,0.01
2013-10-6,80.0,74.4,71.0,76.0,72.7,70.0,98,95,83,29.95,29.79,3,0,9,1.15
2013-10-7,78.0,67.8,60.0,71.0,58.6,54.0,98,74,48,29.97,29.83,9,3,17,0.01
2013-10-8,80.0,65.6,52.0,66.0,57.8,51.0,96,78,49,30.00,29.94,4,1,7,0.01
2013-10-9,79.0,69.9,63.0,70.0,65.9,62.0,98,88,74,30.10,29.99,5,2,12,0.00
2013-10-10,84.0,70.6,61.0,72.0,65.8,60.0,98,86,60,30.11,30.00,4,0,7,0.00
2013-10-11,86.0,71.5,60.0,71.0,65.0,59.0,99,83,51,30.07,29.97,1,0,6,0.00
2013-10-12,86.0,70.8,60.0,72.0,63.9,-99.9,99,83,52,30.09,30.00,3,0,9,0.00
2013-10-13,84.0,72.5,63.0,68.0,64.7,62.0,99,79,49,30.15,30.06,4,0,10,0.00
2013-10-14,85.0,71.0,60.0,69.0,64.7,59.0,99,82,52,30.11,30.01,4,1,9,0.00
2013-10-15,83.0,73.2,65.0,69.0,65.7,63.0,94,79,56,30.06,29.96,4,1,9,0.00
2013-10-16,83.0,71.0,61.0,72.0,66.2,60.0,98,86,63,30.03,29.92,2,0,6,0.00
2013-10-17,81.0,72.6,65.0,76.0,70.1,64.0,98,92,79,29.97,29.88,5,0,10,0.06
2013-10-18,78.0,72.5,65.0,67.0,65.3,62.0,100,79,68,30.02,29.91,3,1,7,0.01
2013-10-19,69.0,67.4,64.0,65.0,57.9,-99.9,100,83,78,30.01,29.91,4,2,11,0.00
2013-10-20,75.0,68.3,56.0,61.0,59.0,55.0,100,73,58,30.04,29.97,5,2,9,0.00
2013-10-21,72.0,66.9,60.0,65.0,60.9,56.0,89,81,75,30.06,29.96,1,0,5,0.00
2013-10-22,76.0,70.3,62.0,68.0,64.8,60.0,100,83,73,29.96,29.87,1,0,5,0.00
2013-10-23,73.0,66.5,49.0,56.0,50.1,44.0,92,58,37,30.12,30.01,7,3,16,0.00
2013-10-24,75.0,57.3,42.0,57.0,48.6,41.0,97,77,40,30.23,30.11,4,0,6,0.00
2013-10-25,66.0,58.1,47.0,50.0,43.5,40.0,96,60,40,30.37,30.20,6,2,16,0.00
2013-10-26,71.0,51.8,38.0,51.0,39.5,-99.9,96,69,33,30.32,30.16,3,0,8,0.00
2013-10-27,74.0,57.6,41.0,59.0,50.7,40.0,98,81,46,30.18,30.09,5,0,7,0.00
2013-10-28,78.0,62.5,51.0,64.0,56.0,-99.9,98,84,61,30.22,30.11,4,0,8,0.00
2013-10-29,78.0,63.3,52.0,66.0,58.1,51.0,99,85,55,30.27,30.19,4,1,10,0.00
2013-10-30,79.0,66.1,54.0,72.0,63.3,53.0,99,91,77,30.22,30.09,5,1,13,0.00
2013-10-31,80.0,73.5,62.0,73.0,69.8,61.0,99,89,77,30.09,29.88,6,1,18,0.01
2013-11-1,75.0,68.6,57.0,73.0,67.2,56.0,99,96,88,29.89,29.78,5,0,11,0.48
2013-11-2,75.0,60.6,49.0,60.0,50.2,-99.9,99,74,43,30.11,29.88,5,1,13,0.01
2013-11-3,67.0,54.6,44.0,49.0,44.8,42.0,97,72,41,30.22,30.10,4,1,10,0.00
2013-11-4,71.0,60.8,50.0,58.0,51.2,44.0,82,71,58,30.29,30.18,6,1,15,0.00
2013-11-5,76.0,64.6,56.0,63.0,55.3,48.0,85,72,61,30.28,30.16,4,1,14,0.00
2013-11-6,74.0,65.3,58.0,68.0,60.8,53.0,98,86,76,30.17,30.07,6,1,12,0.00
2013-11-7,67.0,59.1,49.0,67.0,55.3,42.0,99,87,72,30.23,30.02,12,5,24,0.37
2013-11-8,64.0,52.1,42.0,45.0,39.5,36.0,97,65,40,30.30,30.17,9,4,16,0.37
2013-11-9,72.0,56.9,39.0,59.0,48.8,-99.9,98,78,60,30.26,30.16,4,1,10,0.00
2013-11-10,75.0,60.9,50.0,60.0,54.9,49.0,98,82,57,30.26,30.16,6,1,14,0.00
2013-11-11,76.0,60.1,43.0,56.0,49.0,42.0,99,72,38,30.24,30.13,4,0,7,0.00
2013-11-12,72.0,59.4,45.0,53.0,48.3,41.0,98,70,49,30.33,30.15,12,6,24,0.00
2013-11-13,55.0,46.9,34.0,27.0,24.5,21.0,60,42,31,30.48,30.39,9,5,21,0.00
2013-11-14,63.0,55.1,35.0,51.0,42.5,26.0,76,63,56,30.42,30.23,4,1,10,0.00
2013-11-15,68.0,66.1,63.0,68.0,64.5,62.0,100,94,93,30.09,30.01,5,3,12,0.04
2013-11-16,70.0,66.3,61.0,66.0,62.3,-99.9,100,90,86,30.11,30.01,7,3,14,0.01
2013-11-17,80.0,72.8,67.0,74.0,70.7,66.0,98,94,82,30.01,29.93,6,3,14,0.03
2013-11-18,73.0,68.7,58.0,73.0,64.1,42.0,99,87,51,30.05,29.93,7,2,17,1.56
2013-11-19,64.0,55.0,48.0,44.0,41.1,39.0,74,60,44,30.12,30.01,8,3,16,0.17
2013-11-20,70.0,56.0,43.0,57.0,49.3,39.0,93,79,59,30.16,30.03,3,1,9,0.00
2013-11-21,66.0,60.9,55.0,62.0,57.0,52.0,92,87,82,30.24,30.16,4,1,12,0.00
2013-11-22,72.0,66.2,62.0,67.0,63.7,60.0,98,92,84,30.23,30.12,4,1,10,0.00
2013-11-23,67.0,60.5,51.0,64.0,56.6,-99.9,98,90,73,30.24,30.13,12,4,22,0.00
2013-11-24,54.0,47.7,41.0,42.0,32.0,27.0,71,55,38,30.35,30.24,12,6,27,0.00
2013-11-25,56.0,47.7,42.0,49.0,39.0,32.0,76,71,65,30.31,30.08,7,2,14,0.00
2013-11-26,66.0,51.8,47.0,65.0,50.6,46.0,98,95,92,29.75,29.68,10,6,18,0.00
2013-11-27,47.0,42.6,37.0,35.0,30.9,27.0,82,64,49,30.29,30.08,13,7,26,0.01
2013-11-28,51.0,42.2,28.0,35.0,26.2,22.0,88,55,36,30.46,30.38,7,3,11,0.00
2013-11-29,60.0,51.0,30.0,37.0,30.8,29.0,95,48,32,30.53,30.40,7,2,15,0.00
2013-11-30,65.0,57.6,37.0,49.0,42.6,34.0,90,59,46,30.45,30.28,2,1,8,0.00
2013-12-1,66.0,57.6,42.0,52.0,48.8,41.0,97,75,54,30.27,30.05,5,1,10,0.00
2013-12-2,71.0,63.6,49.0,57.0,54.7,48.0,99,74,61,29.94,29.81,3,0,7,0.00
2013-12-3,77.0,69.0,56.0,69.0,64.2,55.0,98,86,67,29.87,29.79,5,1,16,0.45
2013-12-4,74.0,68.4,58.0,73.0,67.7,58.0,100,98,94,29.98,29.87,6,1,13,0.24
2013-12-5,79.0,74.2,70.0,74.0,72.7,70.0,99,95,85,30.06,29.97,8,3,17,0.16
2013-12-6,79.0,74.0,60.0,74.0,72.0,59.0,98,94,84,30.12,29.98,8,4,18,0.01
2013-12-7,60.0,46.9,45.0,59.0,44.0,-99.9,98,93,91,30.27,30.12,11,5,19,0.01
2013-12-8,75.0,60.9,45.0,71.0,59.6,44.0,99,96,84,30.22,30.05,7,2,18,0.00
2013-12-9,72.0,68.1,62.0,72.0,66.9,60.0,100,96,86,30.10,30.03,5,1,13,0.02
2013-12-10,65.0,48.4,40.0,65.0,45.3,36.0,100,89,74,30.34,30.02,13,5,27,0.10
2013-12-11,61.0,47.9,35.0,47.0,39.8,33.0,93,75,51,30.38,30.28,4,2,10,0.01
2013-12-12,58.0,48.3,38.0,40.0,32.7,28.0,73,56,33,30.47,30.36,8,4,18,0.00
2013-12-13,59.0,46.2,29.0,50.0,38.7,26.0,91,76,56,30.36,30.05,5,1,12,0.00
2013-12-14,74.0,63.2,53.0,70.0,59.3,-99.9,99,89,75,30.05,29.83,7,1,16,0.21
2013-12-15,58.0,44.2,33.0,57.0,40.0,31.0,97,85,74,30.28,29.92,11,6,20,0.06
2013-12-16,59.0,41.2,31.0,43.0,35.1,30.0,97,82,45,30.34,30.24,5,1,10,0.00
2013-12-17,64.0,45.2,29.0,43.0,35.8,29.0,99,75,36,30.33,30.21,5,1,11,0.01
2013-12-18,52.0,47.0,38.0,42.0,40.8,38.0,99,80,65,30.36,30.33,4,2,12,0.00
2013-12-22,56.0,55.1,54.0,55.0,53.6,53.0,96,94,92,30.09,30.02,8,4,18,0.02
2013-12-23,55.0,49.1,39.0,54.0,46.8,35.0,98,92,83,30.37,30.06,11,5,24,0.17
2013-12-24,52.0,39.6,29.0,35.0,30.9,27.0,94,73,43,30.47,30.35,10,4,22,0.01
2013-12-25,50.0,39.0,26.0,36.0,30.0,24.0,93,71,44,30.39,30.28,4,1,9,0.00
2013-12-26,55.0,46.2,37.0,41.0,38.2,34.0,89,74,56,30.34,30.25,9,3,17,0.00
2013-12-27,60.0,51.6,43.0,42.0,39.0,36.0,85,63,50,30.37,30.26,7,3,16,0.00
2013-12-28,53.0,48.8,47.0,51.0,45.4,-99.9,98,92,62,30.27,29.90,6,2,12,1.14
2013-12-29,56.0,47.8,39.0,52.0,46.0,38.0,98,94,83,30.11,29.91,8,3,13,0.42
2013-12-30,60.0,47.4,35.0,53.0,45.4,34.0,99,93,74,30.27,30.11,3,0,5,0.01
2013-12-31,51.0,45.4,43.0,49.0,42.4,39.0,94,89,83,30.41,30.27,8,3,16,0.01
2014-1-1,61.0,51.0,44.0,57.0,49.2,41.0,98,94,86,30.32,30.04,3,1,8,0.17
2014-1-2,59.0,51.4,36.0,58.0,47.1,29.0,99,86,64,30.27,29.92,14,5,27,0.30